createdAt,value
2022-12-02T00:00:46.745Z,3.62
2022-12-02T00:01:45.727Z,3.70
2022-12-02T00:02:45.793Z,3.65
2022-12-02T00:03:45.778Z,3.69
2022-12-02T00:04:45.695Z,3.70
2022-12-02T00:05:45.684Z,3.60
2022-12-02T00:06:46.693Z,3.65
2022-12-02T00:07:45.733Z,3.60
2022-12-02T00:08:45.649Z,3.63
2022-12-02T00:09:45.647Z,3.59
2022-12-02T00:10:45.627Z,3.65
2022-12-02T00:11:45.626Z,3.68
2022-12-02T00:12:46.616Z,3.68
2022-12-02T00:13:45.619Z,3.69
2022-12-02T00:14:45.613Z,3.62
2022-12-02T00:15:45.588Z,3.65
2022-12-02T00:16:45.709Z,3.68
2022-12-02T00:17:45.567Z,3.68
2022-12-02T00:18:46.585Z,3.73
2022-12-02T00:19:45.576Z,3.65
2022-12-02T00:20:45.576Z,3.65
2022-12-02T00:21:45.668Z,3.68
2022-12-02T00:22:45.531Z,3.69
2022-12-02T00:23:45.539Z,3.70
2022-12-02T00:24:46.516Z,3.70
2022-12-02T00:25:45.506Z,3.68
2022-12-02T00:26:45.478Z,3.65
2022-12-02T00:27:46.274Z,3.68
2022-12-02T00:28:45.465Z,3.66
2022-12-02T00:29:45.510Z,3.73
2022-12-02T00:30:46.478Z,3.70
2022-12-02T00:31:45.556Z,3.69
2022-12-02T00:32:45.430Z,3.73
2022-12-02T00:33:45.449Z,3.78
2022-12-02T00:34:45.424Z,3.84
2022-12-02T00:35:45.425Z,3.86
2022-12-02T00:36:46.425Z,3.76
2022-12-02T00:37:45.460Z,3.83
2022-12-02T00:38:45.374Z,3.74
2022-12-02T00:39:45.378Z,3.78
2022-12-02T00:40:45.381Z,3.73
2022-12-02T00:41:45.353Z,3.73
2022-12-02T00:42:46.381Z,3.65
2022-12-02T00:43:45.344Z,3.66
2022-12-02T00:44:45.333Z,3.74
2022-12-02T00:45:45.401Z,3.60
2022-12-02T00:46:45.294Z,3.68
2022-12-02T00:47:45.316Z,3.66
2022-12-02T00:48:46.296Z,3.70
2022-12-02T00:49:45.282Z,3.62
2022-12-02T00:50:45.276Z,3.63
2022-12-02T00:51:45.274Z,3.62
2022-12-02T00:52:45.263Z,3.65
2022-12-02T00:53:45.235Z,3.53
2022-12-02T00:54:46.253Z,3.56
2022-12-02T00:55:45.267Z,3.53
2022-12-02T00:56:45.239Z,3.48
2022-12-02T00:57:45.230Z,3.66
2022-12-02T00:58:45.197Z,3.50
2022-12-02T00:59:45.203Z,3.55
2022-12-02T01:00:46.233Z,3.68
2022-12-02T01:01:45.258Z,3.55
2022-12-02T01:02:45.191Z,3.66
2022-12-02T01:03:46.260Z,3.51
2022-12-02T01:04:45.139Z,3.55
2022-12-02T01:05:45.139Z,3.56
2022-12-02T01:06:46.128Z,3.53
2022-12-02T01:07:45.203Z,3.48
2022-12-02T01:08:45.107Z,3.51
2022-12-02T01:09:45.098Z,3.55
2022-12-02T01:10:45.087Z,3.48
2022-12-02T01:11:45.071Z,3.55
2022-12-02T01:12:46.114Z,3.47
2022-12-02T01:13:45.863Z,3.48
2022-12-02T01:14:45.050Z,3.56
2022-12-02T01:15:45.069Z,3.55
2022-12-02T01:16:45.051Z,3.56
2022-12-02T01:17:45.044Z,3.50
2022-12-02T01:18:46.010Z,3.53
2022-12-02T01:19:45.000Z,3.50
2022-12-02T01:20:44.986Z,3.56
2022-12-02T01:21:44.989Z,3.55
2022-12-02T01:22:44.982Z,3.58
2022-12-02T01:23:45.781Z,3.51
2022-12-02T01:24:45.956Z,3.56
2022-12-02T01:25:44.981Z,3.50
2022-12-02T01:26:44.928Z,3.69
2022-12-02T01:27:44.928Z,3.53
2022-12-02T01:28:44.941Z,3.50
2022-12-02T01:29:44.920Z,3.65
2022-12-02T01:30:45.920Z,3.60
2022-12-02T01:31:44.944Z,3.51
2022-12-02T01:32:44.883Z,3.60
2022-12-02T01:33:44.876Z,3.62
2022-12-02T01:34:44.845Z,3.59
2022-12-02T01:35:44.885Z,3.60
2022-12-02T01:36:45.846Z,3.59
2022-12-02T01:37:44.845Z,3.58
2022-12-02T01:38:44.810Z,3.66
2022-12-02T01:39:44.823Z,3.62
2022-12-02T01:40:44.796Z,3.68
2022-12-02T01:41:44.804Z,3.62
2022-12-02T01:42:45.814Z,3.63
2022-12-02T01:43:44.777Z,3.56
2022-12-02T01:44:44.768Z,3.63
2022-12-02T01:45:44.810Z,3.60
2022-12-02T01:46:44.738Z,3.59
2022-12-02T01:47:51.928Z,3.63
2022-12-02T01:49:48.702Z,3.55
2022-12-02T01:50:48.667Z,3.56
2022-12-02T01:52:57.849Z,3.51
2022-12-02T01:53:52.625Z,3.50
2022-12-02T01:55:56.661Z,3.56
2022-12-02T01:56:56.579Z,3.59
2022-12-02T01:58:49.480Z,3.53
2022-12-02T01:59:49.458Z,3.58
2022-12-02T02:01:53.658Z,3.51
2022-12-02T02:02:53.492Z,3.50
2022-12-02T02:04:57.417Z,3.48
2022-12-02T02:05:57.398Z,3.51
2022-12-02T02:08:01.531Z,3.55
2022-12-02T02:09:01.390Z,3.48
2022-12-02T02:11:05.463Z,3.58
2022-12-02T02:12:05.399Z,3.58
2022-12-02T02:13:05.389Z,3.56
2022-12-02T02:14:05.379Z,3.63
2022-12-02T02:15:05.361Z,3.59
2022-12-02T02:16:05.364Z,3.63
2022-12-02T02:17:05.454Z,3.63
2022-12-02T02:18:05.737Z,3.53
2022-12-02T02:19:05.331Z,3.55
2022-12-02T02:20:05.325Z,3.50
2022-12-02T02:21:05.343Z,3.53
2022-12-02T02:22:05.307Z,3.50
2022-12-02T02:23:05.306Z,3.55
2022-12-02T02:24:05.282Z,3.53
2022-12-02T02:25:05.268Z,3.53
2022-12-02T02:26:05.294Z,3.53
2022-12-02T02:27:05.264Z,3.53
2022-12-02T02:28:05.252Z,3.51
2022-12-02T02:29:05.237Z,3.51
2022-12-02T02:30:05.233Z,3.59
2022-12-02T02:31:05.263Z,3.50
2022-12-02T02:32:05.234Z,3.50
2022-12-02T02:33:05.200Z,3.58
2022-12-02T02:34:05.199Z,3.63
2022-12-02T02:35:05.186Z,3.45
2022-12-02T02:36:05.183Z,3.50
2022-12-02T02:37:05.166Z,3.51
2022-12-02T02:38:05.165Z,3.55
2022-12-02T02:39:05.158Z,3.50
2022-12-02T02:40:05.133Z,3.47
2022-12-02T02:41:05.127Z,3.58
2022-12-02T02:42:05.125Z,3.53
2022-12-02T02:43:05.107Z,3.55
2022-12-02T02:44:05.118Z,3.50
2022-12-02T02:45:05.100Z,3.51
2022-12-02T02:46:05.145Z,3.55
2022-12-02T02:47:05.088Z,3.53
2022-12-02T02:48:05.074Z,3.58
2022-12-02T02:49:05.052Z,3.48
2022-12-02T02:50:05.141Z,3.51
2022-12-02T02:51:05.032Z,3.50
2022-12-02T02:52:05.038Z,3.51
2022-12-02T02:53:05.019Z,3.56
2022-12-02T02:54:05.014Z,3.58
2022-12-02T02:55:04.996Z,3.53
2022-12-02T02:56:05.031Z,3.50
2022-12-02T02:57:04.990Z,3.56
2022-12-02T02:58:04.987Z,3.51
2022-12-02T02:59:04.993Z,3.50
2022-12-02T03:00:04.967Z,3.48
2022-12-02T03:01:04.983Z,3.47
2022-12-02T03:02:04.990Z,3.53
2022-12-02T03:03:04.926Z,3.45
2022-12-02T03:04:04.920Z,3.47
2022-12-02T03:05:04.922Z,3.42
2022-12-02T03:06:04.906Z,3.45
2022-12-02T03:07:04.903Z,3.44
2022-12-02T03:08:05.000Z,3.32
2022-12-02T03:09:04.879Z,3.40
2022-12-02T03:10:04.863Z,3.42
2022-12-02T03:11:04.861Z,3.40
2022-12-02T03:12:04.850Z,3.44
2022-12-02T03:13:04.832Z,3.45
2022-12-02T03:14:04.833Z,3.41
2022-12-02T03:15:04.816Z,3.45
2022-12-02T03:16:04.801Z,3.47
2022-12-02T03:17:04.844Z,3.40
2022-12-02T03:18:04.789Z,3.50
2022-12-02T03:19:04.783Z,3.42
2022-12-02T03:20:04.771Z,3.55
2022-12-02T03:21:04.761Z,3.42
2022-12-02T03:22:04.761Z,3.55
2022-12-02T03:23:04.744Z,3.45
2022-12-02T03:24:04.753Z,3.47
2022-12-02T03:25:04.727Z,3.44
2022-12-02T03:26:04.717Z,3.45
2022-12-02T03:27:04.702Z,3.47
2022-12-02T03:28:04.702Z,3.48
2022-12-02T03:29:04.699Z,3.44
2022-12-02T03:30:04.684Z,3.42
2022-12-02T03:31:04.915Z,3.41
2022-12-02T03:32:04.679Z,3.45
2022-12-02T03:33:04.680Z,3.45
2022-12-02T03:34:04.639Z,3.42
2022-12-02T03:35:04.638Z,3.42
2022-12-02T03:36:04.621Z,3.42
2022-12-02T03:37:04.627Z,3.44
2022-12-02T03:38:04.620Z,3.41
2022-12-02T03:39:04.631Z,3.41
2022-12-02T03:40:04.609Z,3.51
2022-12-02T03:41:04.574Z,3.45
2022-12-02T03:42:04.569Z,3.41
2022-12-02T03:43:04.564Z,3.44
2022-12-02T03:44:04.556Z,3.42
2022-12-02T03:45:04.541Z,3.45
2022-12-02T03:46:04.575Z,3.42
2022-12-02T03:47:04.552Z,3.50
2022-12-02T03:48:04.505Z,3.55
2022-12-02T03:49:04.500Z,3.48
2022-12-02T03:50:04.498Z,3.48
2022-12-02T03:51:04.495Z,3.53
2022-12-02T03:52:04.472Z,3.47
2022-12-02T03:53:04.466Z,3.50
2022-12-02T03:54:04.483Z,3.48
2022-12-02T03:55:04.449Z,3.53
2022-12-02T03:56:04.458Z,3.51
2022-12-02T03:57:04.446Z,3.51
2022-12-02T03:58:04.438Z,3.48
2022-12-02T03:59:04.410Z,3.53
2022-12-02T04:00:04.397Z,3.47
2022-12-02T04:01:04.420Z,3.53
2022-12-02T04:02:04.377Z,3.53
2022-12-02T04:03:04.464Z,3.51
2022-12-02T04:04:04.377Z,3.56
2022-12-02T04:05:04.352Z,3.50
2022-12-02T04:06:04.342Z,3.56
2022-12-02T04:07:04.345Z,3.48
2022-12-02T04:08:04.347Z,3.55
2022-12-02T04:09:04.326Z,3.53
2022-12-02T04:10:04.307Z,3.59
2022-12-02T04:11:04.308Z,3.53
2022-12-02T04:12:04.295Z,3.55
2022-12-02T04:13:04.288Z,3.45
2022-12-02T04:14:04.291Z,3.50
2022-12-02T04:15:04.284Z,3.53
2022-12-02T04:16:04.328Z,3.44
2022-12-02T04:17:08.159Z,3.45
2022-12-02T04:18:04.238Z,3.48
2022-12-02T04:19:04.229Z,3.48
2022-12-02T04:20:04.239Z,3.51
2022-12-02T04:21:04.205Z,3.51
2022-12-02T04:22:04.204Z,3.51
2022-12-02T04:23:04.190Z,3.51
2022-12-02T04:24:04.202Z,3.55
2022-12-02T04:25:04.179Z,3.56
2022-12-02T04:26:04.169Z,3.50
2022-12-02T04:27:04.161Z,3.60
2022-12-02T04:28:04.141Z,3.51
2022-12-02T04:29:04.132Z,3.51
2022-12-02T04:30:04.114Z,3.44
2022-12-02T04:31:04.164Z,3.48
2022-12-02T04:32:04.123Z,3.50
2022-12-02T04:33:04.108Z,3.48
2022-12-02T04:34:04.077Z,3.50
2022-12-02T04:35:04.091Z,3.48
2022-12-02T04:36:04.062Z,3.47
2022-12-02T04:37:04.060Z,3.51
2022-12-02T04:38:08.731Z,3.55
2022-12-02T04:39:04.056Z,3.55
2022-12-02T04:40:04.027Z,3.59
2022-12-02T04:41:04.035Z,3.47
2022-12-02T04:42:04.029Z,3.62
2022-12-02T04:43:04.014Z,3.53
2022-12-02T04:44:04.004Z,3.59
2022-12-02T04:45:03.992Z,3.68
2022-12-02T04:46:04.056Z,3.59
2022-12-02T04:47:03.964Z,3.62
2022-12-02T04:48:03.965Z,3.63
2022-12-02T04:49:03.948Z,3.65
2022-12-02T04:50:03.956Z,3.51
2022-12-02T04:51:03.985Z,3.53
2022-12-02T04:52:03.920Z,3.53
2022-12-02T04:53:03.926Z,3.60
2022-12-02T04:54:03.902Z,3.51
2022-12-02T04:55:03.914Z,3.53
2022-12-02T04:56:03.877Z,3.56
2022-12-02T04:57:03.881Z,3.62
2022-12-02T04:58:03.855Z,3.50
2022-12-02T04:59:03.862Z,3.48
2022-12-02T05:00:03.843Z,3.58
2022-12-02T05:01:03.869Z,3.50
2022-12-02T05:02:03.827Z,3.59
2022-12-02T05:03:03.892Z,3.56
2022-12-02T05:04:03.847Z,3.53
2022-12-02T05:05:03.807Z,3.48
2022-12-02T05:06:03.791Z,3.51
2022-12-02T05:07:03.797Z,3.55
2022-12-02T05:08:03.824Z,3.59
2022-12-02T05:09:03.765Z,3.47
2022-12-02T05:10:03.761Z,3.51
2022-12-02T05:11:03.743Z,3.47
2022-12-02T05:12:03.731Z,3.55
2022-12-02T05:13:03.731Z,3.53
2022-12-02T05:14:03.716Z,3.45
2022-12-02T05:15:03.733Z,3.45
2022-12-02T05:16:03.724Z,3.41
2022-12-02T05:17:03.699Z,3.58
2022-12-02T05:18:03.679Z,3.45
2022-12-02T05:19:03.672Z,3.42
2022-12-02T05:20:03.669Z,3.47
2022-12-02T05:21:03.662Z,3.42
2022-12-02T05:22:03.660Z,3.44
2022-12-02T05:23:03.652Z,3.44
2022-12-02T05:24:03.616Z,3.58
2022-12-02T05:25:03.623Z,3.44
2022-12-02T05:26:03.618Z,3.44
2022-12-02T05:27:03.637Z,3.45
2022-12-02T05:28:03.606Z,3.41
2022-12-02T05:29:03.595Z,3.44
2022-12-02T05:30:03.576Z,3.41
2022-12-02T05:31:03.645Z,3.44
2022-12-02T05:32:03.554Z,3.47
2022-12-02T05:33:03.551Z,3.42
2022-12-02T05:34:03.535Z,3.40
2022-12-02T05:35:03.520Z,3.45
2022-12-02T05:36:03.514Z,3.50
2022-12-02T05:37:03.505Z,3.50
2022-12-02T05:38:05.222Z,3.40
2022-12-02T05:39:03.491Z,3.48
2022-12-02T05:40:03.474Z,3.42
2022-12-02T05:41:03.473Z,3.44
2022-12-02T05:42:03.468Z,3.41
2022-12-02T05:43:03.452Z,3.45
2022-12-02T05:44:03.433Z,3.50
2022-12-02T05:45:03.442Z,3.58
2022-12-02T05:46:03.429Z,3.47
2022-12-02T05:47:03.519Z,3.47
2022-12-02T05:48:03.397Z,3.55
2022-12-02T05:49:03.388Z,3.47
2022-12-02T05:50:03.392Z,3.56
2022-12-02T05:51:03.376Z,3.47
2022-12-02T05:52:03.373Z,3.51
2022-12-02T05:53:03.355Z,3.50
2022-12-02T05:54:03.351Z,3.56
2022-12-02T05:55:03.424Z,3.53
2022-12-02T05:56:03.325Z,3.50
2022-12-02T05:57:03.317Z,3.60
2022-12-02T05:58:03.310Z,3.55
2022-12-02T05:59:03.314Z,3.63
2022-12-02T06:00:03.298Z,3.60
2022-12-02T06:01:03.285Z,3.60
2022-12-02T06:02:03.376Z,3.53
2022-12-02T06:03:03.547Z,3.51
2022-12-02T06:04:03.253Z,3.50
2022-12-02T06:05:03.249Z,3.47
2022-12-02T06:06:03.246Z,3.55
2022-12-02T06:07:03.241Z,3.53
2022-12-02T06:08:03.278Z,3.48
2022-12-02T06:09:03.208Z,3.48
2022-12-02T06:10:03.203Z,3.51
2022-12-02T06:11:03.191Z,3.51
2022-12-02T06:12:03.183Z,3.53
2022-12-02T06:13:03.182Z,3.51
2022-12-02T06:14:03.203Z,3.55
2022-12-02T06:15:03.194Z,3.48
2022-12-02T06:16:03.249Z,3.51
2022-12-02T06:17:03.140Z,3.55
2022-12-02T06:18:03.135Z,3.47
2022-12-02T06:19:03.119Z,3.50
2022-12-02T06:20:03.126Z,3.59
2022-12-02T06:21:03.102Z,3.65
2022-12-02T06:22:03.082Z,3.47
2022-12-02T06:23:03.109Z,3.48
2022-12-02T06:24:03.064Z,3.53
2022-12-02T06:25:03.053Z,3.53
2022-12-02T06:26:03.101Z,3.53
2022-12-02T06:27:03.054Z,3.65
2022-12-02T06:28:08.926Z,3.69
2022-12-02T06:29:03.021Z,3.58
2022-12-02T06:30:03.060Z,3.48
2022-12-02T06:31:03.024Z,3.69
2022-12-02T06:32:03.062Z,3.51
2022-12-02T06:33:02.987Z,3.58
2022-12-02T06:34:02.979Z,3.63
2022-12-02T06:35:02.965Z,3.59
2022-12-02T06:36:02.965Z,3.65
2022-12-02T06:37:02.943Z,3.63
2022-12-02T06:38:02.941Z,3.60
2022-12-02T06:39:02.930Z,3.65
2022-12-02T06:40:27.678Z,3.60
2022-12-02T06:41:02.945Z,3.63
2022-12-02T06:42:02.893Z,3.63
2022-12-02T06:43:02.903Z,3.65
2022-12-02T06:44:02.896Z,3.74
2022-12-02T06:45:02.887Z,3.70
2022-12-02T06:46:02.922Z,3.76
2022-12-02T06:47:02.872Z,3.68
2022-12-02T06:48:02.847Z,3.65
2022-12-02T06:49:02.875Z,3.76
2022-12-02T06:50:02.831Z,3.70
2022-12-02T06:51:02.825Z,3.76
2022-12-02T06:52:02.827Z,3.76
2022-12-02T06:53:02.836Z,3.76
2022-12-02T06:54:02.786Z,3.70
2022-12-02T06:55:02.795Z,3.70
2022-12-02T06:56:02.772Z,3.76
2022-12-02T06:57:02.768Z,3.69
2022-12-02T06:58:02.757Z,3.76
2022-12-02T06:59:02.771Z,3.81
2022-12-02T07:00:02.756Z,3.80
2022-12-02T07:01:02.801Z,3.80
2022-12-02T07:02:07.909Z,3.78
2022-12-02T07:03:02.761Z,3.73
2022-12-02T07:04:02.705Z,3.73
2022-12-02T07:05:02.697Z,3.74
2022-12-02T07:06:02.676Z,3.77
2022-12-02T07:07:02.683Z,3.74
2022-12-02T07:08:02.717Z,3.70
2022-12-02T07:09:02.655Z,3.69
2022-12-02T07:10:02.680Z,3.69
2022-12-02T07:11:02.658Z,3.69
2022-12-02T07:12:02.616Z,3.63
2022-12-02T07:13:02.615Z,3.63
2022-12-02T07:14:02.621Z,3.69
2022-12-02T07:15:02.619Z,3.68
2022-12-02T07:16:02.589Z,3.65
2022-12-02T07:17:02.697Z,3.62
2022-12-02T07:18:02.569Z,3.68
2022-12-02T07:19:02.561Z,3.62
2022-12-02T07:20:02.556Z,3.68
2022-12-02T07:21:02.550Z,3.68
2022-12-02T07:22:02.571Z,3.74
2022-12-02T07:23:02.547Z,3.73
2022-12-02T07:24:02.512Z,3.69
2022-12-02T07:25:02.507Z,3.69
2022-12-02T07:26:02.503Z,3.68
2022-12-02T07:27:05.635Z,3.78
2022-12-02T07:28:02.478Z,3.69
2022-12-02T07:29:15.398Z,3.68
2022-12-02T07:30:02.459Z,3.69
2022-12-02T07:31:02.645Z,3.70
2022-12-02T07:32:02.438Z,3.77
2022-12-02T07:33:02.443Z,3.70
2022-12-02T07:34:02.421Z,3.80
2022-12-02T07:35:02.470Z,3.74
2022-12-02T07:36:02.422Z,3.69
2022-12-02T07:37:02.408Z,3.70
2022-12-02T07:38:02.396Z,3.63
2022-12-02T07:39:06.768Z,3.78
2022-12-02T07:40:02.389Z,3.78
2022-12-02T07:41:02.366Z,3.78
2022-12-02T07:42:02.352Z,3.80
2022-12-02T07:43:02.341Z,3.78
2022-12-02T07:44:02.346Z,3.77
2022-12-02T07:45:02.334Z,3.76
2022-12-02T07:46:02.397Z,3.77
2022-12-02T07:47:02.313Z,3.69
2022-12-02T07:48:02.303Z,3.78
2022-12-02T07:49:02.285Z,3.65
2022-12-02T07:50:02.286Z,3.74
2022-12-02T07:51:02.260Z,3.73
2022-12-02T07:52:02.292Z,3.78
2022-12-02T07:53:02.244Z,3.76
2022-12-02T07:54:02.244Z,3.73
2022-12-02T07:55:02.231Z,3.70
2022-12-02T07:56:02.228Z,3.69
2022-12-02T07:57:02.212Z,3.65
2022-12-02T07:58:02.209Z,3.59
2022-12-02T07:59:17.518Z,3.60
2022-12-02T08:00:02.223Z,3.65
2022-12-02T08:01:02.223Z,3.68
2022-12-02T08:02:02.289Z,3.68
2022-12-02T08:03:02.175Z,3.78
2022-12-02T08:04:02.143Z,4.08
2022-12-02T08:05:02.277Z,4.67
2022-12-02T08:06:02.142Z,5.04
2022-12-02T08:07:02.166Z,5.41
2022-12-02T08:08:02.221Z,5.65
2022-12-02T08:09:02.116Z,5.65
2022-12-02T08:10:02.122Z,5.51
2022-12-02T08:11:02.085Z,5.43
2022-12-02T08:12:02.146Z,5.29
2022-12-02T08:13:02.103Z,5.11
2022-12-02T08:14:02.122Z,4.96
2022-12-02T08:15:02.087Z,4.75
2022-12-02T08:16:02.044Z,4.60
2022-12-02T08:17:02.086Z,4.55
2022-12-02T08:18:02.027Z,4.45
2022-12-02T08:19:02.009Z,4.32
2022-12-02T08:20:02.003Z,4.23
2022-12-02T08:21:05.575Z,4.16
2022-12-02T08:22:01.982Z,4.08
2022-12-02T08:23:01.983Z,3.98
2022-12-02T08:24:01.973Z,3.96
2022-12-02T08:25:01.955Z,4.04
2022-12-02T08:26:01.948Z,4.01
2022-12-02T08:27:01.944Z,3.96
2022-12-02T08:28:01.938Z,3.99
2022-12-02T08:29:01.920Z,3.95
2022-12-02T08:30:01.912Z,3.95
2022-12-02T08:31:02.041Z,3.98
2022-12-02T08:32:01.905Z,3.91
2022-12-02T08:33:01.884Z,3.86
2022-12-02T08:34:06.777Z,3.81
2022-12-02T08:35:01.891Z,3.86
2022-12-02T08:36:01.863Z,3.84
2022-12-02T08:37:01.862Z,3.87
2022-12-02T08:38:01.845Z,3.77
2022-12-02T08:39:01.849Z,3.91
2022-12-02T08:40:01.862Z,3.81
2022-12-02T08:41:01.811Z,3.80
2022-12-02T08:42:01.810Z,3.80
2022-12-02T08:43:01.797Z,3.78
2022-12-02T08:44:01.800Z,3.73
2022-12-02T08:45:01.852Z,3.69
2022-12-02T08:46:01.813Z,3.69
2022-12-02T08:47:01.795Z,3.63
2022-12-02T08:48:01.797Z,3.65
2022-12-02T08:49:01.751Z,3.59
2022-12-02T08:50:01.737Z,3.62
2022-12-02T08:51:01.724Z,3.59
2022-12-02T08:52:01.722Z,3.62
2022-12-02T08:53:01.744Z,3.59
2022-12-02T08:54:01.700Z,3.55
2022-12-02T08:55:01.685Z,3.53
2022-12-02T08:56:01.706Z,3.56
2022-12-02T08:57:01.674Z,3.53
2022-12-02T08:58:01.663Z,3.48
2022-12-02T08:59:01.651Z,3.45
2022-12-02T09:00:01.654Z,3.45
2022-12-02T09:01:01.652Z,3.53
2022-12-02T09:02:01.679Z,3.51
2022-12-02T09:03:01.680Z,3.51
2022-12-02T09:04:01.608Z,3.55
2022-12-02T09:05:01.601Z,3.53
2022-12-02T09:06:01.589Z,3.50
2022-12-02T09:07:01.576Z,3.55
2022-12-02T09:08:01.619Z,3.51
2022-12-02T09:09:01.594Z,3.55
2022-12-02T09:10:01.561Z,3.50
2022-12-02T09:11:01.673Z,3.56
2022-12-02T09:12:01.583Z,3.53
2022-12-02T09:13:01.557Z,3.48
2022-12-02T09:14:01.519Z,3.51
2022-12-02T09:15:01.505Z,3.50
2022-12-02T09:16:01.677Z,3.51
2022-12-02T09:17:01.497Z,3.50
2022-12-02T09:18:01.506Z,3.51
2022-12-02T09:19:01.505Z,3.56
2022-12-02T09:20:01.469Z,3.48
2022-12-02T09:21:01.450Z,3.48
2022-12-02T09:22:01.441Z,3.69
2022-12-02T09:23:01.447Z,3.60
2022-12-02T09:24:01.452Z,3.59
2022-12-02T09:25:01.423Z,3.53
2022-12-02T09:26:01.405Z,3.66
2022-12-02T09:27:01.387Z,3.68
2022-12-02T09:28:01.394Z,3.60
2022-12-02T09:29:01.392Z,3.58
2022-12-02T09:30:01.384Z,3.65
2022-12-02T09:31:01.360Z,3.59
2022-12-02T09:32:01.341Z,3.62
2022-12-02T09:33:01.329Z,3.68
2022-12-02T09:34:01.325Z,3.69
2022-12-02T09:35:01.338Z,3.74
2022-12-02T09:36:01.313Z,3.74
2022-12-02T09:37:01.301Z,3.77
2022-12-02T09:38:01.312Z,3.69
2022-12-02T09:39:01.333Z,3.70
2022-12-02T09:40:01.300Z,3.76
2022-12-02T09:41:01.283Z,3.69
2022-12-02T09:42:01.259Z,3.63
2022-12-02T09:43:01.279Z,3.73
2022-12-02T09:44:01.273Z,3.60
2022-12-02T09:45:01.231Z,3.68
2022-12-02T09:46:01.294Z,3.59
2022-12-02T09:47:01.246Z,3.60
2022-12-02T09:48:01.213Z,3.63
2022-12-02T09:49:01.212Z,3.63
2022-12-02T09:50:01.222Z,3.65
2022-12-02T09:51:01.170Z,3.59
2022-12-02T09:52:01.168Z,3.59
2022-12-02T09:53:01.161Z,3.58
2022-12-02T09:54:01.142Z,3.65
2022-12-02T09:55:01.177Z,3.62
2022-12-02T09:56:01.122Z,3.66
2022-12-02T09:57:01.124Z,3.74
2022-12-02T09:58:01.119Z,3.66
2022-12-02T09:59:01.098Z,3.76
2022-12-02T10:00:01.104Z,3.76
2022-12-02T10:01:01.099Z,3.76
2022-12-02T10:02:01.176Z,3.76
2022-12-02T10:03:01.133Z,3.80
2022-12-02T10:04:01.052Z,3.77
2022-12-02T10:05:01.040Z,3.83
2022-12-02T10:06:01.043Z,3.78
2022-12-02T10:07:01.127Z,3.74
2022-12-02T10:08:01.088Z,3.74
2022-12-02T10:09:01.001Z,3.70
2022-12-02T10:10:01.023Z,3.59
2022-12-02T10:11:00.987Z,3.65
2022-12-02T10:12:00.983Z,3.68
2022-12-02T10:13:07.324Z,3.63
2022-12-02T10:14:00.973Z,3.55
2022-12-02T10:15:00.951Z,3.62
2022-12-02T10:16:00.983Z,3.60
2022-12-02T10:17:00.966Z,3.63
2022-12-02T10:18:00.924Z,3.59
2022-12-02T10:19:00.952Z,3.59
2022-12-02T10:20:00.929Z,3.62
2022-12-02T10:21:00.911Z,3.62
2022-12-02T10:22:00.915Z,3.62
2022-12-02T10:23:00.876Z,3.60
2022-12-02T10:24:00.941Z,3.70
2022-12-02T10:25:00.860Z,3.70
2022-12-02T10:26:00.858Z,3.70
2022-12-02T10:27:00.851Z,3.73
2022-12-02T10:28:00.827Z,3.60
2022-12-02T10:29:00.813Z,3.68
2022-12-02T10:30:00.809Z,3.59
2022-12-02T10:31:00.884Z,3.59
2022-12-02T10:32:00.813Z,3.60
2022-12-02T10:33:00.825Z,3.60
2022-12-02T10:34:00.840Z,3.58
2022-12-02T10:35:00.761Z,3.60
2022-12-02T10:36:00.755Z,3.62
2022-12-02T10:37:00.780Z,3.58
2022-12-02T10:38:00.748Z,3.53
2022-12-02T10:39:00.740Z,3.59
2022-12-02T10:40:00.753Z,3.53
2022-12-02T10:41:00.741Z,3.53
2022-12-02T10:42:00.706Z,3.60
2022-12-02T10:43:00.750Z,3.63
2022-12-02T10:44:00.694Z,3.66
2022-12-02T10:45:00.697Z,3.63
2022-12-02T10:46:00.710Z,3.74
2022-12-02T10:47:00.714Z,3.60
2022-12-02T10:48:00.658Z,3.60
2022-12-02T10:49:00.636Z,3.59
2022-12-02T10:50:00.639Z,3.63
2022-12-02T10:51:00.630Z,3.59
2022-12-02T10:52:00.634Z,3.65
2022-12-02T10:53:00.626Z,3.68
2022-12-02T10:54:00.631Z,3.66
2022-12-02T10:55:01.024Z,3.68
2022-12-02T10:56:00.574Z,3.65
2022-12-02T10:57:00.562Z,3.59
2022-12-02T10:58:00.600Z,3.60
2022-12-02T10:59:00.549Z,3.68
2022-12-02T11:00:00.547Z,3.63
2022-12-02T11:01:00.651Z,3.63
2022-12-02T11:02:00.550Z,3.59
2022-12-02T11:03:00.514Z,3.56
2022-12-02T11:04:00.507Z,3.63
2022-12-02T11:05:00.488Z,3.62
2022-12-02T11:06:00.494Z,3.60
2022-12-02T11:07:00.473Z,3.53
2022-12-02T11:08:00.506Z,3.62
2022-12-02T11:09:31.573Z,3.60
2022-12-02T11:10:00.450Z,3.62
2022-12-02T11:11:00.447Z,3.60
2022-12-02T11:12:00.423Z,3.55
2022-12-02T11:13:00.412Z,3.50
2022-12-02T11:14:00.404Z,3.55
2022-12-02T11:15:00.397Z,3.60
2022-12-02T11:16:00.495Z,3.59
2022-12-02T11:17:00.500Z,3.60
2022-12-02T11:18:00.392Z,3.62
2022-12-02T11:19:00.367Z,3.59
2022-12-02T11:20:00.348Z,3.59
2022-12-02T11:21:00.339Z,3.63
2022-12-02T11:22:00.809Z,3.62
2022-12-02T11:23:00.332Z,3.69
2022-12-02T11:24:00.313Z,3.59
2022-12-02T11:25:00.325Z,3.59
2022-12-02T11:26:00.305Z,3.50
2022-12-02T11:27:00.278Z,3.50
2022-12-02T11:28:00.276Z,3.65
2022-12-02T11:29:00.301Z,3.66
2022-12-02T11:30:00.270Z,3.58
2022-12-02T11:31:00.287Z,3.62
2022-12-02T11:32:00.339Z,3.65
2022-12-02T11:33:00.232Z,3.62
2022-12-02T11:34:05.331Z,3.59
2022-12-02T11:35:17.208Z,3.60
2022-12-02T11:36:00.218Z,3.58
2022-12-02T11:37:00.194Z,3.66
2022-12-02T11:38:00.183Z,3.66
2022-12-02T11:39:00.162Z,3.68
2022-12-02T11:40:00.176Z,3.63
2022-12-02T11:41:00.170Z,3.66
2022-12-02T11:42:00.148Z,3.59
2022-12-02T11:43:00.145Z,3.58
2022-12-02T11:44:00.126Z,3.55
2022-12-02T11:45:00.122Z,3.62
2022-12-02T11:46:00.157Z,3.59
2022-12-02T11:47:00.099Z,3.68
2022-12-02T11:48:00.095Z,3.68
2022-12-02T11:49:00.085Z,3.62
2022-12-02T11:50:00.106Z,3.56
2022-12-02T11:51:00.104Z,3.55
2022-12-02T11:52:03.592Z,3.63
2022-12-02T11:53:00.097Z,3.62
2022-12-02T11:54:00.042Z,3.66
2022-12-02T11:55:00.023Z,3.58
2022-12-02T11:56:00.018Z,3.53
2022-12-02T11:57:00.027Z,3.53
2022-12-02T11:58:00.001Z,3.53
2022-12-02T11:58:59.994Z,3.55
2022-12-02T11:59:59.994Z,3.50
2022-12-02T12:00:59.977Z,3.66
2022-12-02T12:02:00.037Z,3.50
2022-12-02T12:02:59.976Z,3.53
2022-12-02T12:03:59.945Z,3.48
2022-12-02T12:04:59.940Z,3.60
2022-12-02T12:05:59.927Z,3.62
2022-12-02T12:06:59.919Z,3.59
2022-12-02T12:08:03.275Z,3.51
2022-12-02T12:08:59.893Z,3.60
2022-12-02T12:09:59.885Z,3.59
2022-12-02T12:10:59.878Z,3.65
2022-12-02T12:11:59.870Z,3.59
2022-12-02T12:12:59.878Z,3.60
2022-12-02T12:13:59.861Z,3.62
2022-12-02T12:14:59.852Z,3.62
2022-12-02T12:15:59.841Z,3.55
2022-12-02T12:16:59.857Z,3.62
2022-12-02T12:17:59.866Z,3.62
2022-12-02T12:19:04.180Z,3.60
2022-12-02T12:19:59.796Z,3.56
2022-12-02T12:20:59.789Z,3.56
2022-12-02T12:21:59.771Z,3.51
2022-12-02T12:22:59.776Z,3.51
2022-12-02T12:23:59.748Z,3.48
2022-12-02T12:24:59.775Z,3.47
2022-12-02T12:25:59.748Z,3.47
2022-12-02T12:26:59.734Z,3.48
2022-12-02T12:27:59.722Z,3.53
2022-12-02T12:28:59.714Z,3.50
2022-12-02T12:29:59.705Z,3.53
2022-12-02T12:30:59.776Z,3.53
2022-12-02T12:31:59.682Z,3.63
2022-12-02T12:32:59.711Z,3.66
2022-12-02T12:33:59.684Z,3.59
2022-12-02T12:34:59.688Z,3.65
2022-12-02T12:35:59.665Z,3.62
2022-12-02T12:36:59.637Z,3.59
2022-12-02T12:37:59.628Z,3.60
2022-12-02T12:38:59.621Z,3.55
2022-12-02T12:39:59.656Z,3.55
2022-12-02T12:40:59.604Z,3.51
2022-12-02T12:42:01.088Z,3.55
2022-12-02T12:42:59.581Z,3.56
2022-12-02T12:43:59.569Z,3.45
2022-12-02T12:44:59.580Z,3.42
2022-12-02T12:45:59.582Z,3.40
2022-12-02T12:46:59.607Z,3.42
2022-12-02T12:47:59.532Z,3.48
2022-12-02T12:48:59.560Z,3.44
2022-12-02T12:49:59.547Z,3.48
2022-12-02T12:50:59.504Z,3.51
2022-12-02T12:51:59.525Z,3.47
2022-12-02T12:52:59.510Z,3.48
2022-12-02T12:53:59.477Z,3.58
2022-12-02T12:54:59.486Z,3.47
2022-12-02T12:56:01.209Z,3.44
2022-12-02T12:56:59.461Z,3.42
2022-12-02T12:57:59.461Z,3.40
2022-12-02T12:58:59.457Z,3.41
2022-12-02T12:59:59.451Z,3.40
2022-12-02T13:00:59.436Z,3.28
2022-12-02T13:01:59.509Z,3.37
2022-12-02T13:02:59.436Z,3.42
2022-12-02T13:03:59.414Z,3.36
2022-12-02T13:04:59.406Z,3.34
2022-12-02T13:05:59.372Z,3.42
2022-12-02T13:06:59.358Z,3.44
2022-12-02T13:07:59.423Z,3.44
2022-12-02T13:08:59.340Z,3.47
2022-12-02T13:09:59.336Z,3.50
2022-12-02T13:10:59.329Z,3.41
2022-12-02T13:11:59.302Z,3.44
2022-12-02T13:12:59.302Z,3.48
2022-12-02T13:13:59.292Z,3.37
2022-12-02T13:14:59.292Z,3.42
2022-12-02T13:15:59.276Z,3.44
2022-12-02T13:16:59.349Z,3.40
2022-12-02T13:17:59.253Z,3.34
2022-12-02T13:18:59.256Z,3.40
2022-12-02T13:19:59.234Z,3.36
2022-12-02T13:20:59.227Z,3.36
2022-12-02T13:21:59.219Z,3.37
2022-12-02T13:22:59.260Z,3.32
2022-12-02T13:23:59.193Z,3.28
2022-12-02T13:24:59.435Z,3.32
2022-12-02T13:25:59.173Z,3.41
2022-12-02T13:26:59.200Z,3.34